createdAt,value
2022-10-30T00:00:46.454Z,16.40
2022-10-30T00:03:16.001Z,16.50
2022-10-30T00:05:45.011Z,16.50
2022-10-30T00:08:14.463Z,16.50
2022-10-30T00:10:44.772Z,16.60
2022-10-30T00:13:14.029Z,16.60
2022-10-30T00:15:47.263Z,16.60
2022-10-30T00:18:15.341Z,16.60
2022-10-30T00:20:43.337Z,16.60
2022-10-30T00:23:11.483Z,16.30
2022-10-30T00:25:39.457Z,16.40
2022-10-30T00:28:09.166Z,16.30
2022-10-30T00:30:37.431Z,16.30
2022-10-30T00:33:06.046Z,16.40
2022-10-30T00:35:34.049Z,16.50
2022-10-30T00:38:02.524Z,16.50
2022-10-30T00:40:30.787Z,16.50
2022-10-30T00:42:58.688Z,16.40
2022-10-30T00:45:28.012Z,16.30
2022-10-30T00:47:59.535Z,16.30
2022-10-30T00:50:31.478Z,16.40
2022-10-30T00:53:04.630Z,16.40
2022-10-30T00:55:35.936Z,16.30
2022-10-30T00:58:07.778Z,16.20
2022-10-30T01:00:40.639Z,16.00
2022-10-30T01:03:08.855Z,16.00
2022-10-30T01:05:37.588Z,15.80
2022-10-30T01:08:05.941Z,15.90
2022-10-30T01:10:34.272Z,15.80
2022-10-30T01:13:03.008Z,15.90
2022-10-30T01:15:36.307Z,15.90
2022-10-30T01:18:17.776Z,15.90
2022-10-30T01:21:05.123Z,15.70
2022-10-30T01:23:43.539Z,15.80
2022-10-30T01:26:19.144Z,16.10
2022-10-30T01:29:07.934Z,16.10
2022-10-30T01:31:48.506Z,16.00
2022-10-30T01:34:22.408Z,16.20
2022-10-30T01:36:58.297Z,16.20
2022-10-30T01:39:29.051Z,16.20
2022-10-30T01:41:56.979Z,16.10
2022-10-30T01:44:30.616Z,16.20
2022-10-30T01:47:16.140Z,16.30
2022-10-30T01:50:17.898Z,16.30
2022-10-30T01:52:56.902Z,16.20
2022-10-30T01:55:36.371Z,16.10
2022-10-30T01:58:14.401Z,16.10
2022-10-30T02:00:44.736Z,16.10
2022-10-30T02:03:13.258Z,16.10
2022-10-30T02:05:45.271Z,16.00
2022-10-30T02:08:13.500Z,15.90
2022-10-30T02:10:43.551Z,16.00
2022-10-30T02:13:11.743Z,16.00
2022-10-30T02:15:40.330Z,16.10
2022-10-30T02:18:09.129Z,16.20
2022-10-30T02:20:38.869Z,16.30
2022-10-30T02:23:08.859Z,16.20
2022-10-30T02:25:37.173Z,16.20
2022-10-30T02:28:05.421Z,16.20
2022-10-30T02:30:33.389Z,16.40
2022-10-30T02:33:01.652Z,16.50
2022-10-30T02:35:30.996Z,16.30
2022-10-30T02:38:00.696Z,16.20
2022-10-30T02:40:28.958Z,16.20
2022-10-30T02:42:56.963Z,16.10
2022-10-30T02:45:24.927Z,16.10
2022-10-30T02:47:52.920Z,16.20
2022-10-30T02:50:20.918Z,16.20
2022-10-30T02:52:51.203Z,16.10
2022-10-30T02:55:21.084Z,16.10
2022-10-30T02:57:49.036Z,16.10
2022-10-30T03:00:17.406Z,16.10
2022-10-30T03:02:45.387Z,16.10
2022-10-30T03:05:13.385Z,16.10
2022-10-30T03:07:41.423Z,16.10
2022-10-30T03:10:10.211Z,16.00
2022-10-30T03:12:39.579Z,16.00
2022-10-30T03:15:08.543Z,16.00
2022-10-30T03:17:36.524Z,15.60
2022-10-30T03:20:04.723Z,15.40
2022-10-30T03:25:23.798Z,15.50
2022-10-30T03:27:53.932Z,15.70
2022-10-30T03:30:21.838Z,15.70
2022-10-30T03:32:49.798Z,15.90
2022-10-30T03:35:17.756Z,16.00
2022-10-30T03:37:45.681Z,16.10
2022-10-30T03:40:13.845Z,16.10
2022-10-30T03:42:41.939Z,16.10
2022-10-30T03:45:11.930Z,16.20
2022-10-30T03:47:41.079Z,16.20
2022-10-30T03:50:09.582Z,16.10
2022-10-30T03:52:37.533Z,16.00
2022-10-30T03:55:06.152Z,15.90
2022-10-30T03:57:37.847Z,16.00
2022-10-30T04:00:07.134Z,15.80
2022-10-30T04:02:36.416Z,15.90
2022-10-30T04:05:04.570Z,15.90
2022-10-30T04:07:34.653Z,15.90
2022-10-30T04:10:02.571Z,15.80
2022-10-30T04:12:30.504Z,15.80
2022-10-30T04:14:58.483Z,15.80
2022-10-30T04:17:26.410Z,15.80
2022-10-30T04:19:55.987Z,15.70
2022-10-30T04:22:23.939Z,15.70
2022-10-30T04:24:53.506Z,15.70
2022-10-30T04:27:21.513Z,15.60
2022-10-30T04:29:49.470Z,15.50
2022-10-30T04:32:17.435Z,15.40
2022-10-30T04:34:45.380Z,15.40
2022-10-30T04:37:14.668Z,15.30
2022-10-30T04:39:46.372Z,15.10
2022-10-30T04:42:14.537Z,15.10
2022-10-30T04:44:42.479Z,14.90
2022-10-30T04:47:10.435Z,15.00
2022-10-30T04:49:38.370Z,14.90
2022-10-30T04:52:06.302Z,15.00
2022-10-30T04:54:35.561Z,15.20
2022-10-30T04:57:03.543Z,15.30
2022-10-30T04:59:31.524Z,15.40
2022-10-30T05:01:59.524Z,15.20
2022-10-30T05:04:27.533Z,15.30
2022-10-30T05:06:55.512Z,15.30
2022-10-30T05:09:23.465Z,15.40
2022-10-30T05:11:54.934Z,15.40
2022-10-30T05:14:30.431Z,15.30
2022-10-30T05:16:58.589Z,15.20
2022-10-30T05:19:26.734Z,15.20
2022-10-30T05:21:54.867Z,15.20
2022-10-30T05:24:22.830Z,15.10
2022-10-30T05:26:52.192Z,15.20
2022-10-30T05:29:20.119Z,15.30
2022-10-30T05:31:48.081Z,15.20
2022-10-30T05:34:16.049Z,15.30
2022-10-30T05:36:43.982Z,15.30
2022-10-30T05:39:11.914Z,15.20
2022-10-30T05:41:39.859Z,15.20
2022-10-30T05:44:10.556Z,15.30
2022-10-30T05:46:38.479Z,15.40
2022-10-30T05:49:06.586Z,15.30
2022-10-30T05:51:38.020Z,15.10
2022-10-30T05:54:08.471Z,15.10
2022-10-30T05:56:36.405Z,15.30
2022-10-30T05:59:04.342Z,15.30
2022-10-30T06:01:33.693Z,15.40
2022-10-30T06:04:01.696Z,15.60
2022-10-30T06:06:29.634Z,15.60
2022-10-30T06:08:57.766Z,15.60
2022-10-30T06:11:25.800Z,15.50
2022-10-30T06:13:53.698Z,15.50
2022-10-30T06:16:21.724Z,15.60
2022-10-30T06:18:51.059Z,15.50
2022-10-30T06:21:18.986Z,15.50
2022-10-30T06:23:48.865Z,15.60
2022-10-30T06:26:16.797Z,15.60
2022-10-30T06:28:44.738Z,15.60
2022-10-30T06:31:12.643Z,15.60
2022-10-30T06:33:40.644Z,15.60
2022-10-30T06:36:10.163Z,15.80
2022-10-30T06:38:38.209Z,15.80
2022-10-30T06:41:06.485Z,15.70
2022-10-30T06:43:34.423Z,15.60
2022-10-30T06:46:02.696Z,15.50
2022-10-30T06:48:30.800Z,15.40
2022-10-30T06:51:00.359Z,15.10
2022-10-30T06:53:30.060Z,14.90
2022-10-30T06:55:59.023Z,15.10
2022-10-30T06:58:27.881Z,15.20
2022-10-30T07:00:56.309Z,14.90
2022-10-30T07:03:24.279Z,15.10
2022-10-30T07:05:53.075Z,15.30
2022-10-30T07:08:21.027Z,15.30
2022-10-30T07:10:50.337Z,15.50
2022-10-30T07:13:18.614Z,15.60
2022-10-30T07:15:46.589Z,15.60
2022-10-30T07:18:14.572Z,15.60
2022-10-30T07:20:42.485Z,15.70
2022-10-30T07:25:51.911Z,15.60
2022-10-30T07:28:20.194Z,15.70
2022-10-30T07:30:48.191Z,15.50
2022-10-30T07:33:16.103Z,15.50
2022-10-30T07:35:44.038Z,15.70
2022-10-30T07:38:14.138Z,15.70
2022-10-30T07:40:42.304Z,15.50
2022-10-30T07:43:13.275Z,15.80
2022-10-30T07:45:41.434Z,16.00
2022-10-30T07:48:09.399Z,16.20
2022-10-30T07:50:37.333Z,16.20
2022-10-30T07:53:05.265Z,16.30
2022-10-30T07:55:33.187Z,16.40
2022-10-30T07:58:01.479Z,16.50
2022-10-30T08:00:30.991Z,16.50
2022-10-30T08:02:59.443Z,16.50
2022-10-30T08:05:29.945Z,16.50
2022-10-30T08:07:59.459Z,16.50
2022-10-30T08:10:28.154Z,16.70
2022-10-30T08:12:56.219Z,16.90
2022-10-30T08:15:24.445Z,16.90
2022-10-30T08:17:54.014Z,17.00
2022-10-30T08:20:23.570Z,17.20
2022-10-30T08:22:52.816Z,17.30
2022-10-30T08:25:22.563Z,17.40
2022-10-30T08:27:52.699Z,17.50
2022-10-30T08:30:20.892Z,17.50
2022-10-30T08:32:48.835Z,17.60
2022-10-30T08:35:20.213Z,17.70
2022-10-30T08:37:48.536Z,17.80
2022-10-30T08:40:16.598Z,17.70
2022-10-30T08:42:50.756Z,17.70
2022-10-30T08:45:18.731Z,17.80
2022-10-30T08:47:46.788Z,17.90
2022-10-30T08:50:15.298Z,18.10
2022-10-30T08:52:44.650Z,18.10
2022-10-30T08:55:12.559Z,18.30
2022-10-30T08:57:40.502Z,18.40
2022-10-30T09:00:09.632Z,18.40
2022-10-30T09:02:39.451Z,18.30
2022-10-30T09:05:08.198Z,18.30
2022-10-30T09:07:36.531Z,18.40
2022-10-30T09:10:06.690Z,18.40
2022-10-30T09:12:34.676Z,18.60
2022-10-30T09:15:02.687Z,18.70
2022-10-30T09:17:30.704Z,18.70
2022-10-30T09:19:58.813Z,18.70
2022-10-30T09:22:26.773Z,18.90
2022-10-30T09:24:54.687Z,19.00
2022-10-30T09:27:24.042Z,19.00
2022-10-30T09:29:52.039Z,19.00
2022-10-30T09:32:19.971Z,19.10
2022-10-30T09:34:48.127Z,19.10
2022-10-30T09:37:16.140Z,19.20
2022-10-30T09:39:44.066Z,19.20
2022-10-30T09:42:36.446Z,19.20
2022-10-30T09:45:29.208Z,19.40
2022-10-30T09:48:12.227Z,19.40
2022-10-30T09:50:50.279Z,19.50
2022-10-30T09:53:27.097Z,19.50
2022-10-30T09:56:05.627Z,19.60
2022-10-30T09:58:42.460Z,19.90
2022-10-30T10:01:17.855Z,19.90
2022-10-30T10:03:59.774Z,20.00
2022-10-30T10:06:28.358Z,20.00
2022-10-30T10:09:02.248Z,20.00
2022-10-30T10:11:36.703Z,20.00
2022-10-30T10:14:10.505Z,20.10
2022-10-30T10:16:42.080Z,20.20
2022-10-30T10:19:16.647Z,20.30
2022-10-30T10:21:47.432Z,20.20
2022-10-30T10:24:20.049Z,20.20
2022-10-30T10:26:50.653Z,20.20
2022-10-30T10:29:32.617Z,20.50
2022-10-30T10:32:28.035Z,20.40
2022-10-30T10:35:36.030Z,20.60
2022-10-30T10:38:13.805Z,20.60
2022-10-30T10:40:53.094Z,20.50
2022-10-30T10:43:30.807Z,20.60
2022-10-30T10:46:23.190Z,20.60
2022-10-30T10:49:05.576Z,20.70
2022-10-30T10:51:38.632Z,20.80
2022-10-30T10:54:12.394Z,20.90
2022-10-30T10:56:44.589Z,20.90
2022-10-30T10:59:18.849Z,21.00
2022-10-30T11:01:56.822Z,21.00
2022-10-30T11:04:31.787Z,21.10
2022-10-30T11:07:00.327Z,21.30
2022-10-30T11:09:28.652Z,21.20
2022-10-30T11:11:57.018Z,21.30
2022-10-30T11:14:26.686Z,21.30
2022-10-30T11:17:06.427Z,21.20
2022-10-30T11:19:34.414Z,21.20
2022-10-30T11:22:03.951Z,21.10
2022-10-30T11:24:33.805Z,21.30
2022-10-30T11:27:19.272Z,21.20
2022-10-30T11:29:53.816Z,21.40
2022-10-30T11:32:27.396Z,21.50
2022-10-30T11:35:03.928Z,21.50
2022-10-30T11:37:33.536Z,21.60
2022-10-30T11:40:07.882Z,21.50
2022-10-30T11:42:36.646Z,21.40
2022-10-30T11:45:06.983Z,21.60
2022-10-30T11:47:39.492Z,21.60
2022-10-30T11:50:15.963Z,21.60
2022-10-30T11:52:45.548Z,21.70
2022-10-30T11:55:19.522Z,21.70
2022-10-30T11:57:50.128Z,21.80
2022-10-30T12:00:20.553Z,21.80
2022-10-30T12:02:51.811Z,21.90
2022-10-30T12:05:38.758Z,21.90
2022-10-30T12:08:22.298Z,21.80
2022-10-30T12:11:02.430Z,21.70
2022-10-30T12:13:37.687Z,21.80
2022-10-30T12:16:17.623Z,22.00
2022-10-30T12:19:00.424Z,22.00
2022-10-30T12:21:30.554Z,22.10
2022-10-30T12:24:09.443Z,22.10
2022-10-30T12:26:39.023Z,22.00
2022-10-30T12:29:14.673Z,22.10
2022-10-30T12:31:50.084Z,22.20
2022-10-30T12:34:30.846Z,22.20
2022-10-30T12:37:07.779Z,22.30
2022-10-30T12:39:58.770Z,22.20
2022-10-30T12:42:27.167Z,22.20
2022-10-30T12:45:13.323Z,22.20
2022-10-30T12:47:46.303Z,22.30
2022-10-30T12:50:22.815Z,22.20
2022-10-30T12:52:57.528Z,22.20
2022-10-30T12:55:30.032Z,22.20
2022-10-30T12:58:06.396Z,22.30
2022-10-30T13:00:42.339Z,22.30
2022-10-30T13:03:23.519Z,22.20
2022-10-30T13:05:56.503Z,22.20
2022-10-30T13:08:29.761Z,22.30
2022-10-30T13:11:05.782Z,22.40
2022-10-30T13:13:37.921Z,22.50
2022-10-30T13:16:12.852Z,22.60
2022-10-30T13:18:40.855Z,22.60
2022-10-30T13:21:20.790Z,22.50
2022-10-30T13:26:47.377Z,22.50
2022-10-30T13:29:23.619Z,22.60
2022-10-30T13:32:07.805Z,22.60
2022-10-30T13:34:43.831Z,22.50
2022-10-30T13:37:19.425Z,22.60
2022-10-30T13:40:02.255Z,22.60
2022-10-30T13:42:45.472Z,22.60
2022-10-30T13:45:33.130Z,22.50
2022-10-30T13:48:09.192Z,22.40
2022-10-30T13:50:50.086Z,22.40
2022-10-30T13:53:25.158Z,22.50
2022-10-30T13:55:53.634Z,22.40
2022-10-30T13:58:26.825Z,22.60
2022-10-30T14:01:02.278Z,22.50
2022-10-30T14:03:46.781Z,22.40
2022-10-30T14:06:25.779Z,22.30
2022-10-30T14:09:04.010Z,22.50
2022-10-30T14:11:31.935Z,22.60
2022-10-30T14:14:05.716Z,22.50
2022-10-30T14:16:38.133Z,22.30
2022-10-30T14:19:07.446Z,22.20
2022-10-30T14:21:51.966Z,22.10
2022-10-30T14:24:30.199Z,22.20
2022-10-30T14:27:11.681Z,22.20
2022-10-30T14:29:45.442Z,22.20
2022-10-30T14:32:46.860Z,22.20
2022-10-30T14:35:38.508Z,22.20
2022-10-30T14:38:36.620Z,22.10
2022-10-30T14:41:23.442Z,22.00
2022-10-30T14:44:18.438Z,21.90
2022-10-30T14:46:59.053Z,21.80
2022-10-30T14:49:45.187Z,21.80
2022-10-30T14:52:23.461Z,21.80
2022-10-30T14:55:01.113Z,21.60
2022-10-30T14:57:48.070Z,21.60
2022-10-30T15:00:40.850Z,21.60
2022-10-30T15:03:15.766Z,21.50
2022-10-30T15:05:52.008Z,21.40
2022-10-30T15:08:39.167Z,21.40
2022-10-30T15:11:31.691Z,21.30
2022-10-30T15:14:04.164Z,21.30
2022-10-30T15:16:35.410Z,21.20
2022-10-30T15:19:07.305Z,21.20
2022-10-30T15:21:42.204Z,21.10
2022-10-30T15:24:15.535Z,21.00
2022-10-30T15:26:48.264Z,20.90
2022-10-30T15:29:22.844Z,20.90
2022-10-30T15:31:59.620Z,20.80
2022-10-30T15:34:28.768Z,20.90
2022-10-30T15:36:56.810Z,20.80
2022-10-30T15:39:25.192Z,20.70
2022-10-30T15:41:55.485Z,20.70
2022-10-30T15:44:28.467Z,20.70
2022-10-30T15:46:58.851Z,20.60
2022-10-30T15:49:31.789Z,20.60
2022-10-30T15:52:01.115Z,20.50
2022-10-30T15:54:32.189Z,20.50
2022-10-30T15:57:31.718Z,20.50
2022-10-30T15:59:56.375Z,20.40
2022-10-30T16:02:26.996Z,20.40
2022-10-30T16:04:55.276Z,20.30
2022-10-30T16:07:24.860Z,20.20
2022-10-30T16:09:57.227Z,20.10
2022-10-30T16:12:26.781Z,20.10
2022-10-30T16:14:56.564Z,19.90
2022-10-30T16:17:26.320Z,19.90
2022-10-30T16:19:57.928Z,20.00
2022-10-30T16:22:29.288Z,20.10
2022-10-30T16:24:58.979Z,19.90
2022-10-30T16:27:27.641Z,19.70
2022-10-30T16:29:59.493Z,19.70
2022-10-30T16:32:30.808Z,19.70
2022-10-30T16:35:00.371Z,19.60
2022-10-30T16:37:35.090Z,19.60
2022-10-30T16:40:07.480Z,19.60
2022-10-30T16:42:35.477Z,19.60
2022-10-30T16:45:46.427Z,19.50
2022-10-30T16:48:21.289Z,19.40
2022-10-30T16:50:50.325Z,19.50
2022-10-30T16:53:21.635Z,19.50
2022-10-30T16:55:50.017Z,19.40
2022-10-30T16:58:19.145Z,19.30
2022-10-30T17:00:53.813Z,19.30
2022-10-30T17:03:26.551Z,19.40
2022-10-30T17:05:59.442Z,19.60
2022-10-30T17:08:42.517Z,19.40
2022-10-30T17:11:19.061Z,19.20
2022-10-30T17:14:02.138Z,19.10
2022-10-30T17:16:33.057Z,19.20
2022-10-30T17:19:02.609Z,19.10
2022-10-30T17:21:38.626Z,19.10
2022-10-30T17:24:07.284Z,19.00
2022-10-30T17:26:39.887Z,19.00
2022-10-30T17:29:07.875Z,19.00
2022-10-30T17:31:45.147Z,18.90
2022-10-30T17:34:17.110Z,18.80
2022-10-30T17:36:46.021Z,18.80
2022-10-30T17:39:14.280Z,18.80
2022-10-30T17:41:43.351Z,18.80
2022-10-30T17:44:18.605Z,18.80
2022-10-30T17:46:48.225Z,18.80
2022-10-30T17:49:25.091Z,18.70
2022-10-30T17:51:53.344Z,18.70
2022-10-30T17:54:21.451Z,18.70
2022-10-30T17:56:49.764Z,18.70
2022-10-30T17:59:17.763Z,18.70
2022-10-30T18:01:48.870Z,18.60
2022-10-30T18:04:20.850Z,18.60
2022-10-30T18:06:49.724Z,18.60
2022-10-30T18:09:17.853Z,18.70
2022-10-30T18:11:45.793Z,18.70
2022-10-30T18:14:13.994Z,18.70
2022-10-30T18:16:41.936Z,18.60
2022-10-30T18:19:13.002Z,18.60
2022-10-30T18:21:45.300Z,18.70
2022-10-30T18:24:13.916Z,18.60
2022-10-30T18:26:43.558Z,18.50
2022-10-30T18:29:12.224Z,18.50
2022-10-30T18:31:40.588Z,18.50
2022-10-30T18:34:17.032Z,18.50
2022-10-30T18:36:45.291Z,18.40
2022-10-30T18:39:13.387Z,18.40
2022-10-30T18:41:43.369Z,18.50
2022-10-30T18:44:14.972Z,18.50
2022-10-30T18:46:48.942Z,18.50
2022-10-30T18:49:24.355Z,18.50
2022-10-30T18:51:52.344Z,18.40
2022-10-30T18:54:20.280Z,18.50
2022-10-30T18:56:48.214Z,18.50
2022-10-30T18:59:16.167Z,18.40
2022-10-30T19:01:44.131Z,18.40
2022-10-30T19:04:14.007Z,18.30
2022-10-30T19:06:45.047Z,18.20
2022-10-30T19:09:12.947Z,18.30
2022-10-30T19:11:44.320Z,18.20
2022-10-30T19:14:14.010Z,18.20
2022-10-30T19:16:42.204Z,18.10
2022-10-30T19:19:10.123Z,18.00
2022-10-30T19:21:38.120Z,18.00
2022-10-30T19:27:03.709Z,18.00
2022-10-30T19:29:31.737Z,18.00
2022-10-30T19:31:59.699Z,18.00
2022-10-30T19:34:27.607Z,18.00
2022-10-30T19:36:56.398Z,18.00
2022-10-30T19:39:26.691Z,17.90
2022-10-30T19:41:54.685Z,17.90
2022-10-30T19:44:22.645Z,17.90
2022-10-30T19:46:50.622Z,17.90
2022-10-30T19:49:19.604Z,17.90
2022-10-30T19:51:48.213Z,17.90
2022-10-30T19:54:16.224Z,17.90
2022-10-30T19:56:45.665Z,17.90
2022-10-30T19:59:15.479Z,17.90
2022-10-30T20:01:44.507Z,17.90
2022-10-30T20:04:13.143Z,17.80
2022-10-30T20:06:41.151Z,17.80
2022-10-30T20:09:11.679Z,17.80
2022-10-30T20:11:39.722Z,17.80
2022-10-30T20:14:09.054Z,17.90
2022-10-30T20:16:37.026Z,17.90
2022-10-30T20:19:19.469Z,17.90
2022-10-30T20:21:47.443Z,17.80
2022-10-30T20:24:15.364Z,17.80
2022-10-30T20:26:43.404Z,17.90
2022-10-30T20:29:12.921Z,17.80
2022-10-30T20:31:40.876Z,18.00
2022-10-30T20:34:08.831Z,18.00
2022-10-30T20:36:36.783Z,17.80
2022-10-30T20:39:05.295Z,17.80
2022-10-30T20:41:34.146Z,17.80
2022-10-30T20:44:02.095Z,17.70
2022-10-30T20:46:31.398Z,17.70
2022-10-30T20:49:01.330Z,17.60
2022-10-30T20:51:35.325Z,17.60
2022-10-30T20:54:03.256Z,17.80
2022-10-30T20:56:31.235Z,17.90
2022-10-30T20:58:59.163Z,17.70
2022-10-30T21:01:27.226Z,17.60
2022-10-30T21:04:01.461Z,17.50
2022-10-30T21:06:29.907Z,17.70
2022-10-30T21:08:57.831Z,17.60
2022-10-30T21:11:25.872Z,17.70
2022-10-30T21:13:56.395Z,17.70
2022-10-30T21:16:24.462Z,17.80
2022-10-30T21:18:52.663Z,17.70
2022-10-30T21:21:25.624Z,17.60
2022-10-30T21:23:55.404Z,17.50
2022-10-30T21:26:24.646Z,17.50
2022-10-30T21:28:52.622Z,17.50
2022-10-30T21:31:21.130Z,17.50
2022-10-30T21:33:49.062Z,17.40
2022-10-30T21:36:19.778Z,17.40
2022-10-30T21:38:49.549Z,17.50
2022-10-30T21:41:19.771Z,17.60
2022-10-30T21:43:51.278Z,17.40
2022-10-30T21:46:19.362Z,17.40
2022-10-30T21:48:47.553Z,17.30
2022-10-30T21:51:17.220Z,17.40
2022-10-30T21:53:46.672Z,17.40
2022-10-30T21:56:18.221Z,17.30
2022-10-30T21:58:46.691Z,17.10
2022-10-30T22:01:16.346Z,16.90
2022-10-30T22:03:44.491Z,16.70
2022-10-30T22:06:14.124Z,16.60
2022-10-30T22:08:42.245Z,16.50
2022-10-30T22:11:11.615Z,16.40
2022-10-30T22:13:41.289Z,16.40
2022-10-30T22:16:11.663Z,16.50
2022-10-30T22:18:40.158Z,16.60
2022-10-30T22:21:09.918Z,16.70
2022-10-30T22:23:39.144Z,16.80
2022-10-30T22:26:09.364Z,16.90
2022-10-30T22:28:37.678Z,16.90
2022-10-30T22:31:08.711Z,16.90
2022-10-30T22:33:36.977Z,16.90
2022-10-30T22:36:07.005Z,17.00
2022-10-30T22:38:35.610Z,16.90
2022-10-30T22:41:11.481Z,16.90
2022-10-30T22:43:39.462Z,16.90
2022-10-30T22:46:08.883Z,16.90
2022-10-30T22:48:37.183Z,17.00
2022-10-30T22:51:11.794Z,17.00
2022-10-30T22:53:43.408Z,16.90
2022-10-30T22:56:16.904Z,16.80
2022-10-30T22:58:45.273Z,17.00
2022-10-30T23:01:15.857Z,17.00
2022-10-30T23:03:44.042Z,17.00
2022-10-30T23:06:12.875Z,17.00
2022-10-30T23:08:41.276Z,16.90
2022-10-30T23:11:09.505Z,17.00
2022-10-30T23:13:37.852Z,16.90
2022-10-30T23:16:07.899Z,16.90
2022-10-30T23:18:37.228Z,17.00
2022-10-30T23:21:06.987Z,17.00
2022-10-30T23:23:37.290Z,17.00
2022-10-30T23:26:06.575Z,17.00
2022-10-30T23:28:34.554Z,16.90
2022-10-30T23:31:05.341Z,16.80
2022-10-30T23:33:33.263Z,16.90
2022-10-30T23:36:03.250Z,16.70
2022-10-30T23:38:31.810Z,16.80
2022-10-30T23:40:59.759Z,16.80
2022-10-30T23:43:27.707Z,16.80
2022-10-30T23:45:55.655Z,16.90
2022-10-30T23:48:23.648Z,17.00
2022-10-30T23:50:51.571Z,16.90
2022-10-30T23:53:20.973Z,16.80
2022-10-30T23:55:52.785Z,16.90
2022-10-30T23:58:20.913Z,16.90
